This is the latest recevied weather packets stored in our database for station/object W7TJC. If no packets are shown the sender has not sent any weather packets the latest 10 day(s).
| Time | Temp. | Humidity | Pressure | Rain* | Wind** | Luminosity | Snow |
|---|---|---|---|---|---|---|---|
| 1777766148 | 22.78° C | 46% | 1014.4 hPa | 0 mm | - | 22 W/m² | - |
| 1777765847 | 22.78° C | 47% | 1014.3 hPa | 0 mm | - | 18 W/m² | - |
| 1777765542 | 22.78° C | 47% | 1014.6 hPa | 0 mm | - | 19 W/m² | - |
| 1777765240 | 22.78° C | 48% | 1014.6 hPa | 0 mm | - | 19 W/m² | - |
| 1777764940 | 22.78° C | 48% | 1014.6 hPa | 0 mm | - | 20 W/m² | - |
| 1777764638 | 22.78° C | 47% | 1014.9 hPa | 0 mm | - | 20 W/m² | - |
| 1777764334 | 22.78° C | 47% | 1014.7 hPa | 0 mm | - | 20 W/m² | - |
| 1777764031 | 22.78° C | 48% | 1014.8 hPa | 0 mm | - | 24 W/m² | - |
| 1777763728 | 22.78° C | 48% | 1014.8 hPa | 0 mm | - | 21 W/m² | - |
| 1777763426 | 22.78° C | 48% | 1014.8 hPa | 0 mm | - | 21 W/m² | - |
| 1777763124 | 22.78° C | 48% | 1015.1 hPa | 0 mm | - | 22 W/m² | - |
| 1777762823 | 22.78° C | 49% | 1015.1 hPa | 0 mm | - | 22 W/m² | - |
| 1777762522 | 22.78° C | 49% | 1015.2 hPa | 0 mm | - | 23 W/m² | - |
| 1777762220 | 22.78° C | 48% | 1015.3 hPa | 0 mm | - | 27 W/m² | - |
| 1777761916 | 22.78° C | 48% | 1015.2 hPa | 0 mm | - | 27 W/m² | - |
| 1777761613 | 22.78° C | 49% | 1015.3 hPa | 0 mm | - | 25 W/m² | - |
| 1777761311 | 22.78° C | 48% | 1015.5 hPa | 0 mm | - | 26 W/m² | - |
| 1777761009 | 22.22° C | 51% | 1015.7 hPa | 0 mm | - | 26 W/m² | - |
| 1777760706 | 22.22° C | 52% | 1015.7 hPa | 0 mm | - | 84 W/m² | - |
| 1777760402 | 22.22° C | 52% | 1015.9 hPa | 0 mm | - | 329 W/m² | - |
| 1777760098 | 22.78° C | 53% | 1015.8 hPa | 0 mm | - | 29 W/m² | - |
| 1777759795 | 22.78° C | 51% | 1015.8 hPa | 0 mm | - | 29 W/m² | - |
| 1777759491 | 22.22° C | 55% | 1015.4 hPa | 0 mm | - | 31 W/m² | - |
| 1777759188 | 23.33° C | 53% | 1015.9 hPa | 0 mm | - | 34 W/m² | - |
| 1777758885 | 22.78° C | 55% | 1015.8 hPa | 0 mm | - | 78 W/m² | - |
* Rain latest hour (hover to see other rain measurements)
** Current wind speed in m/s (hover to see current wind gust speed)